sensor_id;sensor_type;location;lat;lon;timestamp;temperature;humidity
38854;DHT22;24606;51.992;4.198;2023-09-18T00:03:56;26.40;71.70
38854;DHT22;24606;51.992;4.198;2023-09-18T00:08:58;26.40;71.80
38854;DHT22;24606;51.992;4.198;2023-09-18T00:14:01;26.40;71.70
38854;DHT22;24606;51.992;4.198;2023-09-18T00:19:04;26.40;71.70
38854;DHT22;24606;51.992;4.198;2023-09-18T00:24:08;26.40;71.90
38854;DHT22;24606;51.992;4.198;2023-09-18T00:29:11;26.40;72.00
38854;DHT22;24606;51.992;4.198;2023-09-18T00:34:13;26.40;72.10
38854;DHT22;24606;51.992;4.198;2023-09-18T00:39:15;26.40;72.10
38854;DHT22;24606;51.992;4.198;2023-09-18T00:44:18;26.30;72.10
38854;DHT22;24606;51.992;4.198;2023-09-18T00:49:20;26.40;72.20
38854;DHT22;24606;51.992;4.198;2023-09-18T00:54:23;26.30;72.30
38854;DHT22;24606;51.992;4.198;2023-09-18T00:59:27;26.30;72.30
38854;DHT22;24606;51.992;4.198;2023-09-18T01:04:30;26.30;72.40
38854;DHT22;24606;51.992;4.198;2023-09-18T01:09:33;26.30;72.50
38854;DHT22;24606;51.992;4.198;2023-09-18T01:14:40;26.30;72.60
38854;DHT22;24606;51.992;4.198;2023-09-18T01:19:45;26.30;72.60
38854;DHT22;24606;51.992;4.198;2023-09-18T01:24:48;26.30;72.70
38854;DHT22;24606;51.992;4.198;2023-09-18T01:29:50;26.30;72.90
38854;DHT22;24606;51.992;4.198;2023-09-18T01:34:55;26.30;72.90
38854;DHT22;24606;51.992;4.198;2023-09-18T01:39:59;26.30;73.00
38854;DHT22;24606;51.992;4.198;2023-09-18T01:45:02;26.30;73.20
38854;DHT22;24606;51.992;4.198;2023-09-18T01:50:06;26.30;73.40
38854;DHT22;24606;51.992;4.198;2023-09-18T01:55:10;26.30;73.30
38854;DHT22;24606;51.992;4.198;2023-09-18T02:00:13;26.30;73.30
38854;DHT22;24606;51.992;4.198;2023-09-18T02:05:15;26.20;73.50
38854;DHT22;24606;51.992;4.198;2023-09-18T02:10:18;26.20;73.50
38854;DHT22;24606;51.992;4.198;2023-09-18T02:15:20;26.20;73.70
38854;DHT22;24606;51.992;4.198;2023-09-18T02:20:22;26.20;73.70
38854;DHT22;24606;51.992;4.198;2023-09-18T02:25:25;26.20;73.90
38854;DHT22;24606;51.992;4.198;2023-09-18T02:30:27;26.20;73.80
38854;DHT22;24606;51.992;4.198;2023-09-18T02:35:30;26.20;74.00
38854;DHT22;24606;51.992;4.198;2023-09-18T02:40:33;26.20;74.10
38854;DHT22;24606;51.992;4.198;2023-09-18T02:45:35;26.20;74.30
38854;DHT22;24606;51.992;4.198;2023-09-18T02:50:37;26.20;74.10
38854;DHT22;24606;51.992;4.198;2023-09-18T02:55:40;26.20;74.30
38854;DHT22;24606;51.992;4.198;2023-09-18T03:15:28;26.10;75.20
38854;DHT22;24606;51.992;4.198;2023-09-18T03:20:31;26.10;75.90
38854;DHT22;24606;51.992;4.198;2023-09-18T03:25:33;26.10;75.60
38854;DHT22;24606;51.992;4.198;2023-09-18T03:30:36;26.10;75.70
38854;DHT22;24606;51.992;4.198;2023-09-18T03:35:46;26.10;75.80
38854;DHT22;24606;51.992;4.198;2023-09-18T03:40:48;26.10;75.80
38854;DHT22;24606;51.992;4.198;2023-09-18T03:45:52;26.10;76.00
38854;DHT22;24606;51.992;4.198;2023-09-18T03:50:53;26.10;76.00
38854;DHT22;24606;51.992;4.198;2023-09-18T03:55:55;26.10;76.00
38854;DHT22;24606;51.992;4.198;2023-09-18T04:00:58;26.10;76.20
38854;DHT22;24606;51.992;4.198;2023-09-18T04:06:02;26.10;76.50
38854;DHT22;24606;51.992;4.198;2023-09-18T04:11:04;26.10;76.90
38854;DHT22;24606;51.992;4.198;2023-09-18T04:16:11;26.00;77.00
38854;DHT22;24606;51.992;4.198;2023-09-18T04:21:17;26.10;76.80
38854;DHT22;24606;51.992;4.198;2023-09-18T04:26:19;26.10;77.20
38854;DHT22;24606;51.992;4.198;2023-09-18T04:31:22;26.10;77.20
38854;DHT22;24606;51.992;4.198;2023-09-18T04:36:24;26.10;77.30
38854;DHT22;24606;51.992;4.198;2023-09-18T04:41:26;26.10;78.10
38854;DHT22;24606;51.992;4.198;2023-09-18T04:46:30;26.00;78.20
38854;DHT22;24606;51.992;4.198;2023-09-18T04:51:32;25.70;81.10
38854;DHT22;24606;51.992;4.198;2023-09-18T04:56:34;25.70;80.90
38854;DHT22;24606;51.992;4.198;2023-09-18T05:01:37;25.90;79.80
38854;DHT22;24606;51.992;4.198;2023-09-18T05:06:39;25.80;80.50
38854;DHT22;24606;51.992;4.198;2023-09-18T05:11:42;25.80;81.30
38854;DHT22;24606;51.992;4.198;2023-09-18T05:16:45;26.00;80.20
38854;DHT22;24606;51.992;4.198;2023-09-18T05:21:47;25.90;81.70
38854;DHT22;24606;51.992;4.198;2023-09-18T05:26:49;26.00;80.00
38854;DHT22;24606;51.992;4.198;2023-09-18T05:31:54;25.60;83.30
38854;DHT22;24606;51.992;4.198;2023-09-18T05:36:56;25.90;80.40
38854;DHT22;24606;51.992;4.198;2023-09-18T05:41:58;25.50;83.40
38854;DHT22;24606;51.992;4.198;2023-09-18T05:47:01;25.10;86.80
38854;DHT22;24606;51.992;4.198;2023-09-18T05:52:04;24.80;88.90
38854;DHT22;24606;51.992;4.198;2023-09-18T05:57:06;24.00;92.20
38854;DHT22;24606;51.992;4.198;2023-09-18T06:02:09;24.50;90.70
38854;DHT22;24606;51.992;4.198;2023-09-18T06:07:11;24.40;90.90
38854;DHT22;24606;51.992;4.198;2023-09-18T06:12:13;24.00;92.50
38854;DHT22;24606;51.992;4.198;2023-09-18T06:17:16;23.80;93.80
38854;DHT22;24606;51.992;4.198;2023-09-18T06:22:19;24.00;92.10
38854;DHT22;24606;51.992;4.198;2023-09-18T06:27:20;24.00;92.60
38854;DHT22;24606;51.992;4.198;2023-09-18T06:32:24;25.10;88.80
38854;DHT22;24606;51.992;4.198;2023-09-18T06:37:26;24.70;91.70
38854;DHT22;24606;51.992;4.198;2023-09-18T06:42:28;25.30;86.80
38854;DHT22;24606;51.992;4.198;2023-09-18T06:47:31;25.50;84.80
38854;DHT22;24606;51.992;4.198;2023-09-18T06:52:33;25.20;87.10
38854;DHT22;24606;51.992;4.198;2023-09-18T06:57:35;24.80;88.90
38854;DHT22;24606;51.992;4.198;2023-09-18T07:02:38;24.60;90.60
38854;DHT22;24606;51.992;4.198;2023-09-18T07:07:40;25.10;87.00
38854;DHT22;24606;51.992;4.198;2023-09-18T07:12:41;24.80;90.10
38854;DHT22;24606;51.992;4.198;2023-09-18T07:17:44;23.80;92.90
38854;DHT22;24606;51.992;4.198;2023-09-18T07:22:47;22.50;96.00
38854;DHT22;24606;51.992;4.198;2023-09-18T07:27:49;23.80;92.80
38854;DHT22;24606;51.992;4.198;2023-09-18T07:32:54;23.10;94.50
38854;DHT22;24606;51.992;4.198;2023-09-18T07:37:57;23.40;93.90
38854;DHT22;24606;51.992;4.198;2023-09-18T07:42:58;22.50;96.60
38854;DHT22;24606;51.992;4.198;2023-09-18T07:48:02;22.90;95.10
38854;DHT22;24606;51.992;4.198;2023-09-18T07:53:04;22.70;96.40
38854;DHT22;24606;51.992;4.198;2023-09-18T07:58:06;22.60;97.20
38854;DHT22;24606;51.992;4.198;2023-09-18T08:03:10;22.50;96.70
38854;DHT22;24606;51.992;4.198;2023-09-18T08:08:12;22.60;96.20
38854;DHT22;24606;51.992;4.198;2023-09-18T08:13:14;22.30;97.30
38854;DHT22;24606;51.992;4.198;2023-09-18T08:18:17;23.00;95.40
38854;DHT22;24606;51.992;4.198;2023-09-18T08:23:19;21.70;99.90
38854;DHT22;24606;51.992;4.198;2023-09-18T08:28:21;21.80;99.90
38854;DHT22;24606;51.992;4.198;2023-09-18T08:33:24;21.90;99.10
38854;DHT22;24606;51.992;4.198;2023-09-18T08:38:26;22.50;98.60
38854;DHT22;24606;51.992;4.198;2023-09-18T08:43:29;22.20;98.80
38854;DHT22;24606;51.992;4.198;2023-09-18T08:48:34;22.00;99.20
38854;DHT22;24606;51.992;4.198;2023-09-18T08:53:37;22.10;99.10
38854;DHT22;24606;51.992;4.198;2023-09-18T08:58:39;21.70;99.90
38854;DHT22;24606;51.992;4.198;2023-09-18T09:03:44;22.00;98.90
38854;DHT22;24606;51.992;4.198;2023-09-18T09:08:46;22.00;99.10
38854;DHT22;24606;51.992;4.198;2023-09-18T09:13:48;22.40;97.00
38854;DHT22;24606;51.992;4.198;2023-09-18T09:19:11;22.20;98.10
38854;DHT22;24606;51.992;4.198;2023-09-18T09:24:13;22.30;97.30
38854;DHT22;24606;51.992;4.198;2023-09-18T09:29:16;22.40;96.80
38854;DHT22;24606;51.992;4.198;2023-09-18T09:34:26;22.40;97.00
38854;DHT22;24606;51.992;4.198;2023-09-18T09:39:31;22.80;96.10
38854;DHT22;24606;51.992;4.198;2023-09-18T09:44:33;22.80;95.90
38854;DHT22;24606;51.992;4.198;2023-09-18T09:49:45;23.80;93.60
38854;DHT22;24606;51.992;4.198;2023-09-18T09:54:47;23.80;92.40
38854;DHT22;24606;51.992;4.198;2023-09-18T09:59:49;22.80;95.70
38854;DHT22;24606;51.992;4.198;2023-09-18T10:04:52;22.80;95.90
38854;DHT22;24606;51.992;4.198;2023-09-18T10:09:54;23.00;95.50
38854;DHT22;24606;51.992;4.198;2023-09-18T10:14:57;22.90;94.80
38854;DHT22;24606;51.992;4.198;2023-09-18T10:20:06;22.70;95.50
38854;DHT22;24606;51.992;4.198;2023-09-18T10:25:13;22.60;95.50
38854;DHT22;24606;51.992;4.198;2023-09-18T10:30:18;23.50;93.00
38854;DHT22;24606;51.992;4.198;2023-09-18T10:35:22;23.30;92.90
38854;DHT22;24606;51.992;4.198;2023-09-18T10:40:25;23.40;92.80
38854;DHT22;24606;51.992;4.198;2023-09-18T10:45:28;23.60;92.10
38854;DHT22;24606;51.992;4.198;2023-09-18T10:50:32;23.40;92.20
38854;DHT22;24606;51.992;4.198;2023-09-18T10:55:34;24.00;90.40
38854;DHT22;24606;51.992;4.198;2023-09-18T11:00:37;23.20;92.60
38854;DHT22;24606;51.992;4.198;2023-09-18T11:05:40;23.80;91.50
38854;DHT22;24606;51.992;4.198;2023-09-18T11:10:55;24.00;91.30
38854;DHT22;24606;51.992;4.198;2023-09-18T11:16:00;24.30;87.50
38854;DHT22;24606;51.992;4.198;2023-09-18T11:21:09;25.00;83.50
38854;DHT22;24606;51.992;4.198;2023-09-18T11:26:11;24.80;82.40
38854;DHT22;24606;51.992;4.198;2023-09-18T11:31:13;24.80;84.10
38854;DHT22;24606;51.992;4.198;2023-09-18T11:36:29;25.00;83.10
38854;DHT22;24606;51.992;4.198;2023-09-18T11:41:34;25.10;82.90
38854;DHT22;24606;51.992;4.198;2023-09-18T11:46:38;25.30;80.80
38854;DHT22;24606;51.992;4.198;2023-09-18T11:51:42;25.30;82.50
38854;DHT22;24606;51.992;4.198;2023-09-18T11:56:44;25.80;79.80
38854;DHT22;24606;51.992;4.198;2023-09-18T12:01:52;25.70;79.10
38854;DHT22;24606;51.992;4.198;2023-09-18T12:06:56;25.30;79.60
38854;DHT22;24606;51.992;4.198;2023-09-18T12:12:01;25.90;76.80
38854;DHT22;24606;51.992;4.198;2023-09-18T12:17:05;25.10;79.90
38854;DHT22;24606;51.992;4.198;2023-09-18T12:22:09;25.40;81.70
38854;DHT22;24606;51.992;4.198;2023-09-18T12:27:13;25.30;80.00
38854;DHT22;24606;51.992;4.198;2023-09-18T12:32:15;25.90;79.00
38854;DHT22;24606;51.992;4.198;2023-09-18T12:37:18;26.40;75.80
38854;DHT22;24606;51.992;4.198;2023-09-18T12:42:20;26.50;74.90
38854;DHT22;24606;51.992;4.198;2023-09-18T12:47:22;26.90;73.10
38854;DHT22;24606;51.992;4.198;2023-09-18T12:52:27;26.40;75.30
38854;DHT22;24606;51.992;4.198;2023-09-18T12:57:29;27.00;71.20
38854;DHT22;24606;51.992;4.198;2023-09-18T13:02:33;26.90;72.00
38854;DHT22;24606;51.992;4.198;2023-09-18T13:07:45;27.00;72.40
38854;DHT22;24606;51.992;4.198;2023-09-18T13:12:49;27.10;71.30
38854;DHT22;24606;51.992;4.198;2023-09-18T13:17:53;27.60;69.40
38854;DHT22;24606;51.992;4.198;2023-09-18T13:22:58;27.20;70.80
38854;DHT22;24606;51.992;4.198;2023-09-18T13:28:02;27.00;70.40
38854;DHT22;24606;51.992;4.198;2023-09-18T13:33:06;26.80;71.60
38854;DHT22;24606;51.992;4.198;2023-09-18T13:38:10;26.90;72.00
38854;DHT22;24606;51.992;4.198;2023-09-18T13:43:13;26.80;72.10
38854;DHT22;24606;51.992;4.198;2023-09-18T13:48:16;26.90;72.00
38854;DHT22;24606;51.992;4.198;2023-09-18T13:53:20;26.80;72.70
38854;DHT22;24606;51.992;4.198;2023-09-18T13:58:22;26.80;73.10
38854;DHT22;24606;51.992;4.198;2023-09-18T14:03:24;25.20;82.50
38854;DHT22;24606;51.992;4.198;2023-09-18T14:08:28;25.10;85.60
38854;DHT22;24606;51.992;4.198;2023-09-18T14:13:31;24.70;90.00
38854;DHT22;24606;51.992;4.198;2023-09-18T14:18:32;25.10;86.10
38854;DHT22;24606;51.992;4.198;2023-09-18T14:23:35;25.40;84.60
38854;DHT22;24606;51.992;4.198;2023-09-18T14:28:37;25.50;84.30
38854;DHT22;24606;51.992;4.198;2023-09-18T14:33:39;25.90;81.20
38854;DHT22;24606;51.992;4.198;2023-09-18T14:38:42;24.70;89.40
38854;DHT22;24606;51.992;4.198;2023-09-18T14:43:45;25.00;89.30
38854;DHT22;24606;51.992;4.198;2023-09-18T14:48:47;25.50;86.60
38854;DHT22;24606;51.992;4.198;2023-09-18T14:53:50;25.90;81.90
38854;DHT22;24606;51.992;4.198;2023-09-18T14:58:52;25.20;87.60
38854;DHT22;24606;51.992;4.198;2023-09-18T15:03:56;26.20;80.80
38854;DHT22;24606;51.992;4.198;2023-09-18T15:09:00;26.60;78.90
38854;DHT22;24606;51.992;4.198;2023-09-18T15:14:03;26.80;76.90
38854;DHT22;24606;51.992;4.198;2023-09-18T15:19:05;26.80;76.10
38854;DHT22;24606;51.992;4.198;2023-09-18T15:24:10;27.00;75.80
38854;DHT22;24606;51.992;4.198;2023-09-18T15:29:12;26.90;75.60
38854;DHT22;24606;51.992;4.198;2023-09-18T15:34:14;26.80;75.70
38854;DHT22;24606;51.992;4.198;2023-09-18T15:39:18;25.90;79.80
38854;DHT22;24606;51.992;4.198;2023-09-18T15:44:20;25.30;85.40
38854;DHT22;24606;51.992;4.198;2023-09-18T15:49:23;24.00;92.40
38854;DHT22;24606;51.992;4.198;2023-09-18T15:54:27;24.30;92.60
38854;DHT22;24606;51.992;4.198;2023-09-18T15:59:29;23.80;92.80
38854;DHT22;24606;51.992;4.198;2023-09-18T16:04:31;23.70;93.70
38854;DHT22;24606;51.992;4.198;2023-09-18T16:09:34;25.40;84.70
38854;DHT22;24606;51.992;4.198;2023-09-18T16:14:36;25.40;84.30
38854;DHT22;24606;51.992;4.198;2023-09-18T16:19:39;25.20;86.60
38854;DHT22;24606;51.992;4.198;2023-09-18T16:24:42;25.30;85.80
38854;DHT22;24606;51.992;4.198;2023-09-18T16:29:45;25.00;87.90
38854;DHT22;24606;51.992;4.198;2023-09-18T16:34:46;24.80;88.00
38854;DHT22;24606;51.992;4.198;2023-09-18T16:39:50;24.80;89.00
38854;DHT22;24606;51.992;4.198;2023-09-18T16:44:52;24.80;89.50
38854;DHT22;24606;51.992;4.198;2023-09-18T16:49:54;24.50;89.70
38854;DHT22;24606;51.992;4.198;2023-09-18T16:54:58;24.70;88.90
38854;DHT22;24606;51.992;4.198;2023-09-18T17:00:06;23.20;93.20
38854;DHT22;24606;51.992;4.198;2023-09-18T17:05:08;23.30;92.60
38854;DHT22;24606;51.992;4.198;2023-09-18T17:10:11;23.40;93.20
38854;DHT22;24606;51.992;4.198;2023-09-18T17:15:13;24.50;90.30
38854;DHT22;24606;51.992;4.198;2023-09-18T17:20:16;24.70;85.20
38854;DHT22;24606;51.992;4.198;2023-09-18T17:25:20;23.90;92.70
38854;DHT22;24606;51.992;4.198;2023-09-18T17:30:22;24.60;88.30
38854;DHT22;24606;51.992;4.198;2023-09-18T17:35:25;24.40;90.10
38854;DHT22;24606;51.992;4.198;2023-09-18T17:40:28;24.70;88.20
38854;DHT22;24606;51.992;4.198;2023-09-18T17:45:30;24.90;84.80
38854;DHT22;24606;51.992;4.198;2023-09-18T17:50:32;24.80;86.20
38854;DHT22;24606;51.992;4.198;2023-09-18T17:55:35;24.50;88.30
38854;DHT22;24606;51.992;4.198;2023-09-18T18:00:37;24.50;87.10
38854;DHT22;24606;51.992;4.198;2023-09-18T18:05:39;24.30;89.70
38854;DHT22;24606;51.992;4.198;2023-09-18T18:10:45;24.70;85.10
38854;DHT22;24606;51.992;4.198;2023-09-18T18:15:49;25.10;82.30
38854;DHT22;24606;51.992;4.198;2023-09-18T18:20:51;25.00;84.30
38854;DHT22;24606;51.992;4.198;2023-09-18T18:25:55;25.30;81.40
38854;DHT22;24606;51.992;4.198;2023-09-18T18:30:57;25.00;84.00
38854;DHT22;24606;51.992;4.198;2023-09-18T18:35:58;22.60;92.90
38854;DHT22;24606;51.992;4.198;2023-09-18T18:41:02;20.50;99.90
38854;DHT22;24606;51.992;4.198;2023-09-18T18:46:04;20.20;99.90
38854;DHT22;24606;51.992;4.198;2023-09-18T18:51:11;20.10;99.90
38854;DHT22;24606;51.992;4.198;2023-09-18T18:56:14;19.80;99.90
38854;DHT22;24606;51.992;4.198;2023-09-18T19:01:17;18.90;99.90
38854;DHT22;24606;51.992;4.198;2023-09-18T19:06:20;19.60;99.90
38854;DHT22;24606;51.992;4.198;2023-09-18T19:11:24;19.50;99.90
38854;DHT22;24606;51.992;4.198;2023-09-18T19:16:27;19.50;99.90
38854;DHT22;24606;51.992;4.198;2023-09-18T19:21:28;20.40;99.90
38854;DHT22;24606;51.992;4.198;2023-09-18T19:26:32;20.60;97.80
38854;DHT22;24606;51.992;4.198;2023-09-18T19:31:33;19.80;99.90
38854;DHT22;24606;51.992;4.198;2023-09-18T19:36:35;20.70;99.60
38854;DHT22;24606;51.992;4.198;2023-09-18T19:41:39;20.50;98.40
38854;DHT22;24606;51.992;4.198;2023-09-18T19:46:41;20.40;99.90
38854;DHT22;24606;51.992;4.198;2023-09-18T19:51:42;19.60;99.10
38854;DHT22;24606;51.992;4.198;2023-09-18T19:56:46;20.00;99.50
38854;DHT22;24606;51.992;4.198;2023-09-18T20:01:47;21.10;97.60
38854;DHT22;24606;51.992;4.198;2023-09-18T20:06:49;21.20;97.20
38854;DHT22;24606;51.992;4.198;2023-09-18T20:11:55;21.10;97.70
38854;DHT22;24606;51.992;4.198;2023-09-18T20:16:58;20.40;97.80
38854;DHT22;24606;51.992;4.198;2023-09-18T20:22:01;20.20;97.80
38854;DHT22;24606;51.992;4.198;2023-09-18T20:27:05;19.80;98.70
38854;DHT22;24606;51.992;4.198;2023-09-18T20:32:07;20.20;96.10
38854;DHT22;24606;51.992;4.198;2023-09-18T20:37:09;20.30;97.30
38854;DHT22;24606;51.992;4.198;2023-09-18T20:42:12;20.00;95.80
38854;DHT22;24606;51.992;4.198;2023-09-18T20:47:14;20.10;95.50
38854;DHT22;24606;51.992;4.198;2023-09-18T20:52:18;20.30;91.60
38854;DHT22;24606;51.992;4.198;2023-09-18T20:57:21;21.40;90.70
38854;DHT22;24606;51.992;4.198;2023-09-18T21:02:23;19.70;96.60
38854;DHT22;24606;51.992;4.198;2023-09-18T21:07:25;19.50;98.20
38854;DHT22;24606;51.992;4.198;2023-09-18T21:12:30;20.90;95.60
38854;DHT22;24606;51.992;4.198;2023-09-18T21:17:32;20.20;92.60
38854;DHT22;24606;51.992;4.198;2023-09-18T21:22:35;21.10;95.20
38854;DHT22;24606;51.992;4.198;2023-09-18T21:27:40;20.80;94.80
38854;DHT22;24606;51.992;4.198;2023-09-18T21:32:42;21.50;81.20
38854;DHT22;24606;51.992;4.198;2023-09-18T21:37:45;19.70;95.10
38854;DHT22;24606;51.992;4.198;2023-09-18T21:42:50;20.10;89.80
38854;DHT22;24606;51.992;4.198;2023-09-18T21:47:52;18.80;97.50
38854;DHT22;24606;51.992;4.198;2023-09-18T21:52:55;20.00;83.70
38854;DHT22;24606;51.992;4.198;2023-09-18T21:57:58;20.00;92.90
38854;DHT22;24606;51.992;4.198;2023-09-18T22:03:00;19.50;86.30
38854;DHT22;24606;51.992;4.198;2023-09-18T22:08:03;20.00;88.90
38854;DHT22;24606;51.992;4.198;2023-09-18T22:13:07;21.00;76.80
38854;DHT22;24606;51.992;4.198;2023-09-18T22:18:08;20.40;81.70
38854;DHT22;24606;51.992;4.198;2023-09-18T22:23:12;21.20;83.30
38854;DHT22;24606;51.992;4.198;2023-09-18T22:28:15;20.60;78.50
38854;DHT22;24606;51.992;4.198;2023-09-18T22:33:18;20.10;88.40
38854;DHT22;24606;51.992;4.198;2023-09-18T22:38:27;19.90;79.10
38854;DHT22;24606;51.992;4.198;2023-09-18T22:54:53;19.50;90.80
38854;DHT22;24606;51.992;4.198;2023-09-18T22:59:55;20.40;88.40
38854;DHT22;24606;51.992;4.198;2023-09-18T23:04:58;19.40;90.00
38854;DHT22;24606;51.992;4.198;2023-09-18T23:10:04;20.10;83.20
38854;DHT22;24606;51.992;4.198;2023-09-18T23:15:08;20.60;88.30
38854;DHT22;24606;51.992;4.198;2023-09-18T23:20:13;19.80;83.10
38854;DHT22;24606;51.992;4.198;2023-09-18T23:25:17;20.40;81.20
38854;DHT22;24606;51.992;4.198;2023-09-18T23:30:20;19.70;73.70
38854;DHT22;24606;51.992;4.198;2023-09-18T23:35:23;19.40;88.60
38854;DHT22;24606;51.992;4.198;2023-09-18T23:40:30;20.00;71.00
38854;DHT22;24606;51.992;4.198;2023-09-18T23:45:34;19.40;87.80
38854;DHT22;24606;51.992;4.198;2023-09-18T23:50:38;19.40;71.60
38854;DHT22;24606;51.992;4.198;2023-09-18T23:55:44;20.00;80.30
